KOGD/OGD METAR and TAF weather

Enter ICAO airport designator
Station Type Date Time Source
KOGD METAR 2018/12/15 04:53 UTC NOAA

KOGD 150453Z AUTO 00000KT 10SM OVC100 M02/M07 A3016 RMK AO2 SLP234 T10171072


Station Type Date Time Source
KOGD Decoded METAR 2018/12/15 04:53 UTC NOAA

OGDEN-HINCKLEY AIRPORT, UT, United States (KOGD) 41-12N 112-01W 1353M
Dec 14, 2018 - 11:53 PM EST / 2018.12.15 0453 UTC
Wind: Calm:0
Visibility: 10 mile(s):0
Sky conditions: overcast
Temperature: 28.9 F (-1.7 C)
Dew Point: 19.0 F (-7.2 C)
Relative Humidity: 66%
Pressure (altimeter): 30.16 in. Hg (1021 hPa)
ob: KOGD 150453Z AUTO 00000KT 10SM OVC100 M02/M07 A3016 RMK AO2 SLP234 T10171072
cycle: 5

Station Type Date Time Source
KOGD TAF 2018/12/15 06:27 UTC NOAA

KOGD 150525Z 1506/1606 16005KT P6SM SCT060 BKN100
FM151200 17005KT P6SM SCT100 SCT200
FM151900 32006KT P6SM SCT200
FM160300 16006KT P6SM SCT200


Example: see airport list